Time;durP1;ratioP1;P1;durP2;ratioP2;P2;SDS_P1;SDS_P2;PMS_P1;PMS_P2;Temp;Humidity;BMP_temperature;BMP_pressure;BME280_temperature;BME280_humidity;BME280_pressure;Samples;Min_cycle;Max_cycle;Signal;HPM_P1;HPM_P2
2022/03/30 00:01:10;;;;;;;13.02;3.47;;;19.40;29.70;;;;;;5019084;28;20400;-75
2022/03/30 00:03:36;;;;;;;61.55;30.65;;;19.30;29.70;;;;;;5020194;28;20029;-75
2022/03/30 00:06:04;;;;;;;30.20;20.02;;;19.30;29.60;;;;;;5026493;28;20531;-75
2022/03/30 00:08:30;;;;;;;23.02;10.50;;;19.30;29.60;;;;;;5015228;28;20107;-75
2022/03/30 00:10:56;;;;;;;197.88;123.13;;;19.30;29.70;;;;;;5024228;28;20026;-75
2022/03/30 00:13:23;;;;;;;13.10;4.35;;;19.20;29.60;;;;;;5003289;28;20409;-75
2022/03/30 00:15:49;;;;;;;13.80;3.83;;;19.20;29.70;;;;;;5018276;28;20034;-75
2022/03/30 00:18:15;;;;;;;83.22;43.03;;;19.20;29.80;;;;;;5027919;28;20040;-75
2022/03/30 00:20:40;;;;;;;59.78;23.20;;;19.10;29.70;;;;;;5015022;28;20029;-75
2022/03/30 00:23:06;;;;;;;14.63;3.80;;;19.10;29.60;;;;;;5023581;28;20017;-75
2022/03/30 00:25:32;;;;;;;55.38;33.58;;;19.10;29.70;;;;;;5022199;28;20049;-75
2022/03/30 00:27:58;;;;;;;13.55;3.70;;;19.00;29.70;;;;;;5017110;28;20026;-75
2022/03/30 00:30:23;;;;;;;140.30;93.00;;;19.00;29.70;;;;;;5026476;28;20033;-75
2022/03/30 00:32:49;;;;;;;16.52;4.75;;;19.00;29.80;;;;;;5015821;28;20052;-75
2022/03/30 00:35:15;;;;;;;82.90;48.50;;;18.90;29.70;;;;;;5022701;28;20503;-75
2022/03/30 00:37:41;;;;;;;35.25;22.23;;;18.90;29.80;;;;;;5023129;28;20025;-75
2022/03/30 00:40:10;;;;;;;11.63;4.15;;;18.90;29.80;;;;;;5015654;28;20083;-75
2022/03/30 00:42:36;;;;;;;104.37;45.80;;;18.90;29.80;;;;;;5025838;28;20053;-75
2022/03/30 00:45:27;;;;;;;128.07;72.07;;;18.90;29.80;;;;;;5017661;28;20052;-75
2022/03/30 00:47:53;;;;;;;18.33;11.25;;;18.80;29.80;;;;;;5013824;28;20045;-75
2022/03/30 00:50:21;;;;;;;14.48;6.72;;;18.80;29.90;;;;;;5027407;28;20018;-75
2022/03/30 00:52:50;;;;;;;28.30;10.73;;;18.80;29.90;;;;;;5015310;28;20163;-75
2022/03/30 00:55:17;;;;;;;11.32;3.78;;;18.70;30.40;;;;;;5021426;28;20022;-75
2022/03/30 00:57:43;;;;;;;46.75;32.80;;;18.80;30.00;;;;;;5023370;28;20047;-75
2022/03/30 01:00:15;;;;;;;58.13;42.97;;;18.70;29.90;;;;;;5014907;28;20048;-75
2022/03/30 01:02:43;;;;;;;113.88;79.38;;;18.70;29.90;;;;;;4998408;28;20041;-75
2022/03/30 01:05:09;;;;;;;10.68;3.80;;;18.70;30.00;;;;;;5023265;28;20084;-75
2022/03/30 01:07:35;;;;;;;16.75;6.57;;;18.70;30.50;;;;;;5022128;28;20029;-75
2022/03/30 01:10:05;;;;;;;35.33;27.98;;;18.70;30.00;;;;;;5016501;28;20414;-75
2022/03/30 01:12:32;;;;;;;15.70;5.70;;;18.60;30.00;;;;;;5025729;28;20068;-75
2022/03/30 01:14:59;;;;;;;70.18;40.10;;;18.60;30.00;;;;;;5016884;28;20029;-75
2022/03/30 01:17:27;;;;;;;21.20;8.13;;;18.60;30.00;;;;;;5021010;28;20430;-75
2022/03/30 01:19:53;;;;;;;13.88;3.20;;;18.60;29.90;;;;;;5024364;28;20051;-75
2022/03/30 01:22:19;;;;;;;20.98;7.25;;;18.60;29.90;;;;;;5014122;28;20025;-75
2022/03/30 01:24:44;;;;;;;18.90;10.43;;;18.50;29.90;;;;;;5029050;28;20026;-74
2022/03/30 01:27:10;;;;;;;16.08;6.03;;;18.50;29.90;;;;;;5022055;28;20489;-75
2022/03/30 01:32:27;;;;;;;16.00;8.65;;;18.50;30.00;;;;;;5030576;28;20041;-75
2022/03/30 01:34:58;;;;;;;18.38;7.10;;;18.50;30.00;;;;;;5019837;28;20030;-75
2022/03/30 01:37:25;;;;;;;93.75;43.15;;;18.40;30.00;;;;;;5024564;28;20067;-75
2022/03/30 01:39:51;;;;;;;10.90;3.72;;;18.40;30.00;;;;;;5009937;28;20561;-75
2022/03/30 01:42:17;;;;;;;18.95;6.70;;;18.40;30.00;;;;;;5017262;28;20113;-75
2022/03/30 01:44:43;;;;;;;13.27;3.40;;;18.40;30.00;;;;;;5030281;28;20018;-75
2022/03/30 01:47:10;;;;;;;15.20;4.03;;;18.30;30.00;;;;;;5021794;28;20025;-75
2022/03/30 01:49:36;;;;;;;21.92;8.27;;;18.40;30.10;;;;;;5021723;28;20168;-75
2022/03/30 01:52:03;;;;;;;23.00;12.35;;;18.30;30.10;;;;;;5026961;28;20029;-75
2022/03/30 01:54:34;;;;;;;67.45;35.97;;;18.30;30.20;;;;;;5016311;28;20025;-75
2022/03/30 01:56:59;;;;;;;16.75;6.90;;;18.20;30.20;;;;;;5022519;28;20049;-75
2022/03/30 01:59:25;;;;;;;14.20;4.88;;;18.30;30.30;;;;;;5024072;28;20111;-74
2022/03/30 02:01:52;;;;;;;105.50;72.10;;;18.20;30.20;;;;;;5027715;28;20029;-75
2022/03/30 02:04:18;;;;;;;43.92;27.15;;;18.20;30.30;;;;;;5017136;28;20025;-75
2022/03/30 02:06:44;;;;;;;14.52;3.88;;;18.20;30.30;;;;;;5023444;28;20500;-74
2022/03/30 02:09:12;;;;;;;16.38;5.30;;;18.20;30.30;;;;;;5026102;28;20475;-75
2022/03/30 02:11:38;;;;;;;13.23;3.72;;;18.10;30.20;;;;;;5024877;28;20028;-74
2022/03/30 02:14:04;;;;;;;108.85;67.38;;;18.10;30.30;;;;;;5018464;28;20026;-75
2022/03/30 02:16:30;;;;;;;686.42;556.40;;;18.10;30.20;;;;;;5021849;28;20022;-78
2022/03/30 02:18:56;;;;;;;13.93;3.50;;;18.20;31.40;;;;;;5027902;28;20053;-78
2022/03/30 02:21:22;;;;;;;220.40;178.63;;;18.50;31.00;;;;;;5022642;28;20029;-78
2022/03/30 02:23:47;;;;;;;9.27;3.00;;;18.80;32.20;;;;;;5019175;28;20026;-78
2022/03/30 02:26:15;;;;;;;15.23;3.65;;;19.00;33.90;;;;;;5027683;28;20084;-78
2022/03/30 02:28:43;;;;;;;17.17;3.25;;;19.30;33.50;;;;;;5003977;28;20030;-78
2022/03/30 02:31:10;;;;;;;11.15;3.13;;;19.40;33.70;;;;;;5025631;28;20033;-76
2022/03/30 02:33:36;;;;;;;971.10;719.40;;;19.60;33.80;;;;;;5023109;28;20034;-78
2022/03/30 02:36:02;;;;;;;866.28;622.10;;;19.60;35.00;;;;;;5018043;28;20026;-76
2022/03/30 02:38:28;;;;;;;46.03;34.38;;;19.70;34.40;;;;;;5013493;28;20446;-78
2022/03/30 02:40:54;;;;;;;45.75;30.92;;;19.70;34.40;;;;;;5013418;28;20036;-78
2022/03/30 02:43:20;;;;;;;217.07;146.38;;;19.70;34.20;;;;;;5011737;28;20084;-78
2022/03/30 02:45:49;;;;;;;351.48;223.90;;;19.70;34.30;;;;;;5013364;28;20030;-77
2022/03/30 02:48:18;;;;;;;299.02;187.27;;;19.70;34.30;;;;;;5012416;28;20410;-78
2022/03/30 02:50:52;;;;;;;122.88;98.55;;;19.70;34.50;;;;;;5013356;28;20033;-78
2022/03/30 02:53:19;;;;;;;12.75;3.53;;;19.70;34.60;;;;;;5012795;28;20025;-78
2022/03/30 02:55:45;;;;;;;11.07;2.72;;;19.70;34.60;;;;;;5011970;28;20037;-78
2022/03/30 02:58:11;;;;;;;16.70;13.55;;;19.70;34.70;;;;;;5013100;28;20029;-78
2022/03/30 03:00:38;;;;;;;442.80;240.20;;;19.70;34.80;;;;;;5012948;28;20113;-78
2022/03/30 03:03:06;;;;;;;962.30;584.20;;;19.80;35.00;;;;;;5011125;28;20108;-78
2022/03/30 03:05:34;;;;;;;10.40;2.75;;;19.80;35.10;;;;;;5013018;28;20030;-78
2022/03/30 03:08:01;;;;;;;12.10;2.88;;;19.80;35.20;;;;;;5012793;28;20210;-78
2022/03/30 03:10:27;;;;;;;12.05;2.95;;;19.80;35.20;;;;;;5012898;28;20105;-77
2022/03/30 03:12:54;;;;;;;103.95;82.20;;;19.80;35.30;;;;;;4994837;28;20372;-78
2022/03/30 03:15:21;;;;;;;398.75;310.85;;;19.80;35.40;;;;;;5011667;28;20037;-77
2022/03/30 03:17:46;;;;;;;70.60;60.30;;;19.80;35.50;;;;;;5012618;28;20092;-78
2022/03/30 03:20:12;;;;;;;599.47;480.58;;;19.80;35.50;;;;;;5012917;28;20018;-78
2022/03/30 03:22:38;;;;;;;155.27;126.35;;;19.90;35.70;;;;;;5012128;28;20037;-78
2022/03/30 03:25:05;;;;;;;230.07;166.85;;;19.90;35.70;;;;;;5011643;28;20053;-78
2022/03/30 03:27:31;;;;;;;324.73;270.67;;;19.90;35.80;;;;;;5012556;28;20033;-78
2022/03/30 03:29:57;;;;;;;929.13;726.60;;;19.90;36.00;;;;;;5012404;28;20034;-78
2022/03/30 03:32:23;;;;;;;1252.20;955.17;;;19.90;36.00;;;;;;5012002;28;20038;-79
2022/03/30 03:34:49;;;;;;;112.60;101.00;;;19.90;36.00;;;;;;5012528;28;20029;-79
2022/03/30 03:37:18;;;;;;;707.22;543.53;;;19.90;36.10;;;;;;5011177;28;20129;-78
2022/03/30 03:39:44;;;;;;;413.75;291.67;;;19.90;36.20;;;;;;5012464;28;20179;-78
2022/03/30 03:42:10;;;;;;;372.52;329.48;;;19.90;36.10;;;;;;5012099;28;20435;-78
2022/03/30 03:44:35;;;;;;;303.40;218.05;;;20.00;36.20;;;;;;5011978;28;20030;-78
2022/03/30 03:47:02;;;;;;;165.30;115.75;;;20.00;36.30;;;;;;5012075;28;20021;-78
2022/03/30 03:49:28;;;;;;;55.15;49.35;;;20.00;36.30;;;;;;5012287;28;20032;-78
2022/03/30 03:51:53;;;;;;;142.23;104.28;;;20.00;36.40;;;;;;5011826;28;20393;-79
2022/03/30 03:54:19;;;;;;;125.57;112.32;;;20.00;36.60;;;;;;5011937;28;20030;-78
2022/03/30 03:56:45;;;;;;;104.22;89.32;;;20.00;36.60;;;;;;5010908;28;20034;-78
2022/03/30 03:59:11;;;;;;;306.77;274.38;;;20.00;36.70;;;;;;5012034;28;20527;-78
2022/03/30 04:01:37;;;;;;;497.40;443.20;;;20.00;36.80;;;;;;5010701;28;20033;-78
2022/03/30 04:04:03;;;;;;;123.50;83.43;;;20.00;36.90;;;;;;5011651;28;20071;-78
2022/03/30 04:06:30;;;;;;;574.30;511.33;;;20.00;36.90;;;;;;5011938;28;20096;-78
2022/03/30 04:08:55;;;;;;;222.75;205.07;;;20.00;37.00;;;;;;5010534;28;20030;-78
2022/03/30 04:11:21;;;;;;;124.20;113.43;;;20.00;37.10;;;;;;5011822;28;20032;-78
2022/03/30 04:13:47;;;;;;;173.13;159.27;;;20.00;37.20;;;;;;5010333;28;20486;-78
2022/03/30 04:16:16;;;;;;;128.27;118.72;;;20.00;37.30;;;;;;5011741;28;20129;-78
2022/03/30 04:18:42;;;;;;;526.03;486.50;;;20.00;37.20;;;;;;5011726;28;20040;-79
2022/03/30 04:21:08;;;;;;;226.63;208.95;;;20.00;37.30;;;;;;5011996;28;20037;-78
2022/03/30 04:23:34;;;;;;;342.58;316.27;;;20.00;37.40;;;;;;5010371;28;20030;-78
2022/03/30 04:25:59;;;;;;;857.17;478.83;;;20.00;37.40;;;;;;5011771;28;20426;-79
2022/03/30 04:28:25;;;;;;;1188.72;789.35;;;20.00;37.50;;;;;;5010199;28;20045;-79
2022/03/30 04:30:51;;;;;;;1116.70;634.13;;;20.00;37.50;;;;;;5011732;28;20038;-79
2022/03/30 04:33:17;;;;;;;7.18;2.70;;;20.00;37.60;;;;;;5011207;28;20065;-78
2022/03/30 04:35:42;;;;;;;832.80;514.17;;;20.00;37.60;;;;;;5011529;28;20390;-77
2022/03/30 04:38:08;;;;;;;1345.78;768.72;;;20.00;37.70;;;;;;5011506;28;20037;-78
2022/03/30 04:40:34;;;;;;;882.10;451.13;;;20.00;37.70;;;;;;5010235;28;20034;-79
2022/03/30 04:43:00;;;;;;;1028.90;589.28;;;20.00;37.70;;;;;;5010897;28;20125;-79
2022/03/30 04:45:26;;;;;;;789.85;415.77;;;20.10;37.90;;;;;;5010611;28;20172;-79
2022/03/30 04:47:54;;;;;;;691.63;297.80;;;20.10;37.90;;;;;;5011497;28;20124;-79
2022/03/30 04:50:21;;;;;;;968.15;748.90;;;20.10;37.90;;;;;;4994142;28;20030;-79
2022/03/30 04:52:48;;;;;;;253.90;116.72;;;20.10;38.00;;;;;;5009856;28;20026;-79
2022/03/30 04:55:14;;;;;;;511.02;236.00;;;20.10;38.00;;;;;;5011443;28;20030;-78
2022/03/30 04:57:40;;;;;;;50.28;35.10;;;20.10;38.00;;;;;;5012456;28;20091;-79
2022/03/30 05:00:11;;;;;;;664.15;499.25;;;20.10;38.00;;;;;;5014269;28;20437;-78
2022/03/30 05:02:38;;;;;;;613.72;486.52;;;20.10;38.00;;;;;;5015466;28;20026;-79
2022/03/30 05:05:05;;;;;;;506.27;404.63;;;20.10;38.10;;;;;;5015305;28;20112;-78
2022/03/30 05:07:31;;;;;;;812.17;708.47;;;20.10;38.10;;;;;;5015369;28;20034;-78
2022/03/30 05:09:57;;;;;;;758.47;576.80;;;20.10;38.20;;;;;;5015181;28;20029;-79
2022/03/30 05:12:24;;;;;;;742.15;603.92;;;20.10;38.30;;;;;;5013474;28;20040;-79
2022/03/30 05:14:52;;;;;;;1932.47;931.78;;;20.10;38.40;;;;;;5014915;28;20025;-79
2022/03/30 05:17:18;;;;;;;397.35;289.40;;;20.10;38.40;;;;;;5015003;28;20022;-78
2022/03/30 05:19:44;;;;;;;310.02;232.38;;;20.10;38.40;;;;;;5015031;28;20026;-78
2022/03/30 05:22:10;;;;;;;321.05;258.65;;;20.10;38.50;;;;;;5014465;28;20088;-78
2022/03/30 05:24:37;;;;;;;932.83;778.45;;;20.10;38.60;;;;;;5015037;28;20037;-78
2022/03/30 05:27:03;;;;;;;612.50;482.55;;;20.10;38.60;;;;;;5014897;28;20124;-78
2022/03/30 05:29:30;;;;;;;997.20;759.78;;;20.10;38.60;;;;;;5014733;28;20060;-78
2022/03/30 05:31:55;;;;;;;897.85;711.75;;;20.10;38.70;;;;;;5014808;28;20034;-78
2022/03/30 05:34:21;;;;;;;1990.57;971.88;;;20.10;38.80;;;;;;4997218;28;20040;-79
2022/03/30 05:36:48;;;;;;;1008.45;844.55;;;20.10;38.80;;;;;;5013607;28;20041;-78
2022/03/30 05:39:14;;;;;;;691.20;576.00;;;20.10;38.80;;;;;;5014527;28;20030;-79
2022/03/30 05:41:39;;;;;;;463.10;429.27;;;20.10;38.80;;;;;;5012505;28;20033;-79
2022/03/30 05:44:05;;;;;;;1588.82;869.05;;;20.10;38.80;;;;;;5029541;28;20541;-78
2022/03/30 05:46:31;;;;;;;1999.90;999.90;;;20.10;38.80;;;;;;5014591;28;20033;-79
2022/03/30 05:48:57;;;;;;;1993.63;999.90;;;20.10;38.90;;;;;;5013315;28;20022;-78
2022/03/30 05:51:23;;;;;;;972.90;598.13;;;20.10;38.90;;;;;;5013127;28;20030;-79
2022/03/30 05:53:49;;;;;;;1977.60;909.20;;;20.20;39.00;;;;;;5012663;28;20033;-78
2022/03/30 05:56:15;;;;;;;166.25;152.82;;;20.20;39.10;;;;;;5013183;28;20041;-78
2022/03/30 05:58:41;;;;;;;1582.10;810.92;;;20.20;39.10;;;;;;5013186;28;20367;-77
2022/03/30 06:01:07;;;;;;;828.08;428.95;;;20.10;39.00;;;;;;5013184;28;20041;-78
2022/03/30 06:03:37;;;;;;;1860.53;916.17;;;20.20;39.00;;;;;;5013809;28;20026;-77
2022/03/30 06:06:06;;;;;;;1241.13;520.13;;;20.20;39.10;;;;;;5014329;28;20109;-77
2022/03/30 06:08:33;;;;;;;695.17;590.37;;;20.20;39.10;;;;;;5013843;28;20022;-77
2022/03/30 06:10:58;;;;;;;1247.40;865.80;;;20.20;39.10;;;;;;5014055;28;20092;-77
2022/03/30 06:13:24;;;;;;;1072.05;801.55;;;20.20;39.10;;;;;;5012620;28;20033;-77
2022/03/30 06:15:50;;;;;;;1454.47;656.33;;;20.20;39.10;;;;;;4980516;28;20030;-77
2022/03/30 06:18:16;;;;;;;646.33;474.10;;;20.30;39.30;;;;;;5013855;28;20038;-77
2022/03/30 06:20:42;;;;;;;655.08;467.40;;;20.20;39.20;;;;;;5013901;28;20375;-77
2022/03/30 06:23:08;;;;;;;876.28;681.50;;;20.30;39.40;;;;;;5012254;28;20084;-77
2022/03/30 06:25:34;;;;;;;1922.18;926.97;;;20.20;39.30;;;;;;5013901;28;20025;-77
2022/03/30 06:28:00;;;;;;;868.10;687.25;;;20.30;39.30;;;;;;5013518;28;20475;-77
2022/03/30 06:30:26;;;;;;;643.85;532.20;;;20.20;39.40;;;;;;5013749;28;20501;-77
2022/03/30 06:32:52;;;;;;;1123.70;875.97;;;20.30;39.50;;;;;;5013345;28;20063;-77
2022/03/30 06:35:19;;;;;;;1028.55;808.88;;;20.30;39.50;;;;;;5013504;28;20037;-77
2022/03/30 06:37:46;;;;;;;1951.40;994.53;;;20.30;39.50;;;;;;5012116;28;20033;-77
2022/03/30 06:40:14;;;;;;;1999.90;943.53;;;20.20;39.50;;;;;;4995863;28;20030;-78
2022/03/30 06:42:41;;;;;;;1478.88;935.50;;;20.30;39.50;;;;;;5012902;28;20034;-78
2022/03/30 06:45:09;;;;;;;1163.70;542.22;;;20.30;39.60;;;;;;5013857;28;20109;-78
2022/03/30 06:47:35;;;;;;;1674.57;697.38;;;20.30;39.70;;;;;;5012388;28;20026;-78
2022/03/30 06:50:01;;;;;;;4.57;2.28;;;20.30;39.70;;;;;;4995736;28;20030;-79
2022/03/30 06:52:27;;;;;;;874.20;617.72;;;20.30;39.60;;;;;;5011830;28;20034;-78
2022/03/30 06:55:06;;;;;;;664.40;439.75;;;20.30;39.70;;;;;;5013090;28;20038;-78
2022/03/30 06:57:32;;;;;;;972.30;821.63;;;20.30;39.70;;;;;;5013089;28;20402;-79
2022/03/30 06:59:58;;;;;;;7.95;5.72;;;20.30;39.70;;;;;;5013063;28;20037;-78
2022/03/30 07:02:24;;;;;;;7.20;2.75;;;20.30;39.80;;;;;;5012700;28;20116;-79
2022/03/30 07:04:49;;;;;;;339.33;227.85;;;20.30;39.80;;;;;;5012893;28;20113;-79
2022/03/30 07:10:15;;;;;;;827.33;583.72;;;20.30;39.80;;;;;;5013087;28;20022;-79
2022/03/30 07:12:45;;;;;;;513.67;351.50;;;20.30;39.90;;;;;;5011525;28;20041;-78
2022/03/30 07:15:11;;;;;;;862.35;663.65;;;20.40;39.90;;;;;;5012717;28;20471;-79
2022/03/30 07:17:45;;;;;;;6.53;2.72;;;20.30;39.80;;;;;;5011807;28;20034;-79
2022/03/30 07:20:11;;;;;;;5.47;2.60;;;20.40;39.80;;;;;;5011073;28;20037;-80
2022/03/30 07:22:36;;;;;;;822.25;652.67;;;20.40;39.80;;;;;;5011131;28;20054;-80
2022/03/30 07:25:03;;;;;;;944.97;623.20;;;20.40;39.90;;;;;;5011556;28;20112;-80
2022/03/30 07:27:30;;;;;;;6.32;2.67;;;20.40;39.80;;;;;;5013315;28;20029;-79
2022/03/30 07:29:56;;;;;;;116.93;91.18;;;20.40;39.90;;;;;;5011286;28;20152;-79
2022/03/30 07:32:23;;;;;;;5.20;2.40;;;20.40;39.90;;;;;;5011426;28;20117;-79
2022/03/30 07:34:49;;;;;;;5.35;2.33;;;20.40;40.00;;;;;;5011389;28;20037;-79
2022/03/30 07:37:15;;;;;;;48.65;30.42;;;20.40;40.00;;;;;;5012544;28;20036;-80
2022/03/30 07:39:41;;;;;;;4.68;2.40;;;20.40;40.00;;;;;;5011185;28;20257;-80
2022/03/30 07:42:06;;;;;;;62.03;57.85;;;20.40;40.00;;;;;;5011741;28;20032;-79
2022/03/30 07:44:32;;;;;;;137.02;125.45;;;20.40;40.00;;;;;;5012295;28;20426;-80
2022/03/30 07:46:59;;;;;;;518.65;385.95;;;20.40;40.10;;;;;;5012228;28;20028;-79
2022/03/30 07:49:25;;;;;;;92.72;74.43;;;20.40;40.00;;;;;;5012351;28;20721;-80
2022/03/30 07:51:50;;;;;;;490.50;410.17;;;20.40;40.10;;;;;;5012428;28;20383;-80
2022/03/30 07:54:16;;;;;;;6.20;2.70;;;20.40;40.10;;;;;;5010940;28;20037;-79
2022/03/30 07:56:42;;;;;;;244.15;187.90;;;20.40;40.10;;;;;;4994542;28;20079;-80
2022/03/30 07:59:08;;;;;;;5.88;2.47;;;20.40;40.10;;;;;;5011117;28;20026;-80
2022/03/30 08:01:33;;;;;;;4.57;2.22;;;20.40;40.20;;;;;;5011913;28;20375;-80
2022/03/30 08:03:59;;;;;;;4.53;2.22;;;20.40;40.10;;;;;;5011759;28;20034;-80
2022/03/30 08:06:26;;;;;;;6.15;2.53;;;20.40;40.30;;;;;;5010760;28;20029;-80
2022/03/30 08:08:52;;;;;;;5.50;2.63;;;20.40;40.10;;;;;;5010889;28;20092;-80
2022/03/30 08:11:18;;;;;;;5.75;2.47;;;20.40;40.30;;;;;;5010564;28;20061;-80
2022/03/30 08:13:44;;;;;;;5.03;2.50;;;20.40;40.30;;;;;;5011700;28;20111;-79
2022/03/30 08:16:09;;;;;;;5.18;2.15;;;20.40;40.20;;;;;;5010664;28;20029;-79
2022/03/30 08:18:35;;;;;;;117.40;85.03;;;20.40;40.30;;;;;;5011843;28;20033;-79
2022/03/30 08:23:45;;;;;;;239.98;173.48;;;20.40;40.30;;;;;;5011420;28;20034;-80
2022/03/30 08:26:11;;;;;;;4.80;2.22;;;20.40;40.30;;;;;;5011569;28;20022;-79
2022/03/30 08:28:37;;;;;;;5.18;2.45;;;20.50;40.40;;;;;;5010759;28;20029;-80
2022/03/30 08:31:02;;;;;;;380.10;348.60;;;20.50;40.50;;;;;;5009653;28;20402;-79
2022/03/30 08:33:28;;;;;;;3.78;2.33;;;20.50;40.50;;;;;;5010256;28;20029;-80
2022/03/30 08:35:54;;;;;;;318.63;242.02;;;20.40;40.40;;;;;;5011590;28;20119;-80
2022/03/30 08:38:21;;;;;;;5.03;2.40;;;20.50;40.50;;;;;;5011534;28;20048;-79
2022/03/30 08:40:47;;;;;;;7.63;2.67;;;20.50;40.50;;;;;;5011414;28;20107;-80
2022/03/30 08:43:12;;;;;;;259.27;203.68;;;20.50;40.50;;;;;;5011254;28;20029;-80
2022/03/30 08:45:39;;;;;;;6.47;2.30;;;20.50;40.60;;;;;;5010329;28;20462;-80
2022/03/30 08:48:05;;;;;;;4.32;2.20;;;20.50;40.50;;;;;;5010421;28;20030;-79
2022/03/30 08:50:31;;;;;;;5.00;2.45;;;20.50;40.50;;;;;;5010594;28;20092;-80
2022/03/30 08:53:02;;;;;;;54.22;48.58;;;20.50;40.60;;;;;;4993513;28;20030;-79
2022/03/30 08:55:28;;;;;;;251.52;205.05;;;20.50;40.60;;;;;;5011443;28;20040;-80
2022/03/30 08:57:54;;;;;;;5.10;2.63;;;20.50;40.60;;;;;;5010273;28;20112;-80
2022/03/30 09:00:21;;;;;;;4.15;2.30;;;20.50;40.60;;;;;;5011349;28;20521;-80
2022/03/30 09:03:00;;;;;;;6.85;2.55;;;20.50;40.70;;;;;;5010859;28;20101;-79
2022/03/30 09:05:31;;;;;;;312.40;244.15;;;20.50;40.70;;;;;;5011135;28;20030;-80
2022/03/30 09:08:15;;;;;;;5.13;2.60;;;20.50;40.70;;;;;;5011336;28;20064;-80
2022/03/30 09:10:43;;;;;;;6.30;2.80;;;20.50;40.70;;;;;;5009998;28;20088;-80
2022/03/30 09:13:10;;;;;;;4.60;2.50;;;20.50;40.80;;;;;;5010909;28;20490;-80
2022/03/30 09:15:38;;;;;;;4.65;2.65;;;20.50;40.80;;;;;;5010123;28;20088;-80
2022/03/30 09:18:06;;;;;;;5.78;2.30;;;20.50;40.90;;;;;;5011437;28;20109;-80
2022/03/30 09:20:33;;;;;;;6.32;2.42;;;20.50;40.70;;;;;;5011170;28;20022;-80
2022/03/30 09:23:00;;;;;;;4.82;2.35;;;20.50;40.80;;;;;;5010972;28;20026;-80
2022/03/30 09:25:29;;;;;;;5.07;2.47;;;20.50;40.80;;;;;;5009772;28;20084;-80
2022/03/30 09:27:56;;;;;;;1054.00;553.85;;;20.50;40.90;;;;;;5011647;28;20022;-80
2022/03/30 09:30:24;;;;;;;6.10;2.58;;;20.50;40.80;;;;;;5011025;28;20058;-80
2022/03/30 09:32:52;;;;;;;5.53;2.53;;;20.50;40.90;;;;;;5009454;28;20450;-80
2022/03/30 09:35:25;;;;;;;5.80;2.70;;;20.50;40.90;;;;;;5011235;28;20037;-80
2022/03/30 09:38:06;;;;;;;5.32;2.65;;;20.50;40.80;;;;;;5011165;28;20037;-80
2022/03/30 09:40:35;;;;;;;5.00;2.45;;;20.50;40.90;;;;;;5010911;28;20030;-80
2022/03/30 09:43:28;;;;;;;5.47;2.70;;;20.60;40.90;;;;;;5011653;28;20041;-80
2022/03/30 09:46:03;;;;;;;5.75;2.50;;;20.60;41.00;;;;;;5014642;28;20447;-80
2022/03/30 09:48:32;;;;;;;4.28;2.53;;;20.60;40.90;;;;;;5014603;28;20064;-80
2022/03/30 09:50:59;;;;;;;4.68;2.35;;;20.50;40.90;;;;;;4997166;28;20030;-80
2022/03/30 09:53:28;;;;;;;5.18;2.50;;;20.50;40.90;;;;;;5012721;28;20088;-80
2022/03/30 09:55:58;;;;;;;4.70;2.42;;;20.50;41.00;;;;;;5013201;28;20101;-80
2022/03/30 09:58:26;;;;;;;4.82;2.40;;;20.50;40.90;;;;;;5014385;28;20482;-80
2022/03/30 10:01:16;;;;;;;5.63;2.67;;;20.60;40.90;;;;;;5014366;28;20121;-80
2022/03/30 10:03:48;;;;;;;5.28;2.53;;;20.60;41.10;;;;;;5012907;28;20390;-80
2022/03/30 10:06:23;;;;;;;4.75;2.60;;;20.50;41.00;;;;;;5014205;28;20029;-78
2022/03/30 10:08:50;;;;;;;5.40;2.33;;;20.60;41.10;;;;;;5014193;28;20029;-77
2022/03/30 10:11:17;;;;;;;5.63;2.70;;;20.50;41.10;;;;;;5014160;28;20036;-78
2022/03/30 10:13:49;;;;;;;4.03;2.38;;;20.50;41.10;;;;;;5013875;28;20034;-78
2022/03/30 10:16:17;;;;;;;6.32;3.05;;;20.60;41.20;;;;;;5013926;28;20404;-78
2022/03/30 10:18:44;;;;;;;5.05;2.50;;;20.60;41.20;;;;;;5014172;28;20030;-77
2022/03/30 10:21:36;;;;;;;6.05;2.50;;;20.50;41.10;;;;;;5013869;28;20033;-79
2022/03/30 10:24:07;;;;;;;703.17;612.40;;;20.50;41.00;;;;;;5011377;28;20453;-78
2022/03/30 10:26:55;;;;;;;382.40;253.05;;;20.50;41.20;;;;;;5013811;28;20479;-78
2022/03/30 10:29:23;;;;;;;4.70;2.55;;;20.50;41.20;;;;;;5014071;28;20033;-78
2022/03/30 10:32:16;;;;;;;4.80;2.58;;;20.50;41.20;;;;;;5013674;28;20029;-78
2022/03/30 10:34:57;;;;;;;4.15;2.47;;;20.50;41.10;;;;;;5013816;28;20038;-78
2022/03/30 10:37:26;;;;;;;422.63;340.60;;;20.50;41.20;;;;;;5013529;28;20030;-76
2022/03/30 10:40:03;;;;;;;5.22;2.70;;;20.50;41.30;;;;;;5013651;28;20026;-76
2022/03/30 10:42:49;;;;;;;267.10;202.15;;;20.60;41.30;;;;;;5012833;28;20029;-75
2022/03/30 10:45:37;;;;;;;4.88;2.58;;;20.50;41.20;;;;;;4973306;28;20056;-76
2022/03/30 10:48:10;;;;;;;5.90;3.00;;;20.60;41.40;;;;;;5013593;28;20394;-76
2022/03/30 10:51:01;;;;;;;581.63;454.80;;;20.60;41.30;;;;;;5012149;28;20457;-75
2022/03/30 10:53:38;;;;;;;4.95;2.40;;;20.60;41.40;;;;;;5013031;28;20394;-76
2022/03/30 10:56:16;;;;;;;901.53;772.42;;;20.60;41.40;;;;;;5012516;28;20030;-76
2022/03/30 10:58:55;;;;;;;5.05;2.50;;;20.60;41.40;;;;;;5013280;28;20037;-75
2022/03/30 11:01:31;;;;;;;5.82;2.70;;;20.60;41.40;;;;;;5013042;28;20037;-76
2022/03/30 11:03:59;;;;;;;6.05;2.65;;;20.60;41.30;;;;;;5012886;28;20036;-76
2022/03/30 11:06:26;;;;;;;6.70;2.70;;;20.60;41.40;;;;;;5012834;28;20026;-76
2022/03/30 11:08:51;;;;;;;4.28;2.40;;;20.60;41.40;;;;;;5011921;28;20482;-76
2022/03/30 11:11:49;;;;;;;6.70;2.63;;;20.60;41.40;;;;;;5012792;28;20104;-76
2022/03/30 11:14:32;;;;;;;4.65;2.58;;;20.60;42.00;;;;;;5011154;28;20077;-77
2022/03/30 11:17:09;;;;;;;5.88;2.70;;;20.70;41.30;;;;;;5012690;28;20448;-76
2022/03/30 11:19:58;;;;;;;4.90;2.60;;;20.70;41.30;;;;;;5012971;28;20038;-77
2022/03/30 11:22:42;;;;;;;4.00;2.60;;;20.70;41.30;;;;;;5003535;28;20486;-77
2022/03/30 11:25:18;;;;;;;5.13;2.63;;;20.70;41.40;;;;;;5012237;28;20029;-77
2022/03/30 11:27:47;;;;;;;4.55;2.60;;;20.70;41.30;;;;;;5011954;28;20041;-77
2022/03/30 11:30:13;;;;;;;;;;;20.70;41.40;;;;;;4979884;28;20117;-76
2022/03/30 11:33:00;;;;;;;527.55;424.02;;;20.70;41.40;;;;;;5011823;28;20370;-80
2022/03/30 11:35:32;;;;;;;7.40;2.92;;;20.70;41.40;;;;;;5013388;28;20514;-79
2022/03/30 11:38:21;;;;;;;4.60;2.45;;;20.70;41.50;;;;;;5012292;28;20061;-79
2022/03/30 11:40:48;;;;;;;4.80;2.35;;;20.70;41.50;;;;;;5008085;28;20034;-79
2022/03/30 11:43:16;;;;;;;4.82;2.90;;;20.70;41.50;;;;;;5028894;22;20109;-72
2022/03/30 11:45:42;;;;;;;4.28;2.72;;;20.70;42.10;;;;;;4998705;28;20116;-71
2022/03/30 11:48:10;;;;;;;5.35;2.83;;;20.70;41.50;;;;;;5028031;28;20048;-71
2022/03/30 11:50:41;;;;;;;383.58;298.95;;;20.70;41.50;;;;;;5034349;28;20029;-71
2022/03/30 11:53:12;;;;;;;6.57;2.60;;;20.70;41.50;;;;;;5051357;28;20557;-72
2022/03/30 11:55:48;;;;;;;4.45;2.35;;;20.70;41.50;;;;;;5034067;28;20033;-72
2022/03/30 11:58:34;;;;;;;172.55;113.72;;;20.70;41.50;;;;;;5051722;28;20028;-72
2022/03/30 12:01:05;;;;;;;213.82;193.32;;;20.70;41.60;;;;;;5033801;28;20056;-72
2022/03/30 12:03:31;;;;;;;4.47;2.55;;;20.70;41.60;;;;;;5051279;28;20025;-72
2022/03/30 12:05:59;;;;;;;8.73;3.28;;;20.70;41.60;;;;;;5027658;28;20037;-72
2022/03/30 12:08:27;;;;;;;986.40;836.08;;;20.70;41.60;;;;;;5031154;28;20025;-73
2022/03/30 12:11:00;;;;;;;10.45;3.10;;;20.70;41.80;;;;;;5013720;28;20036;-73
2022/03/30 12:13:27;;;;;;;5.60;2.70;;;20.80;41.70;;;;;;5013163;28;20029;-73
2022/03/30 12:16:05;;;;;;;6.60;2.83;;;20.80;41.70;;;;;;5031070;28;20486;-73
2022/03/30 12:18:31;;;;;;;475.35;322.63;;;20.80;41.70;;;;;;5013271;28;20102;-73
2022/03/30 12:21:02;;;;;;;335.10;297.45;;;20.80;42.50;;;;;;5031073;28;20029;-73
2022/03/30 12:23:28;;;;;;;8.63;2.78;;;20.80;41.90;;;;;;4980522;28;20454;-74
2022/03/30 12:25:53;;;;;;;4.00;2.30;;;20.80;42.10;;;;;;5013504;28;20025;-74
2022/03/30 12:28:32;;;;;;;6.88;2.58;;;20.80;42.10;;;;;;5030905;28;20386;-73
2022/03/30 12:31:03;;;;;;;6.28;2.70;;;20.80;42.10;;;;;;5015478;28;20029;-75
2022/03/30 12:33:28;;;;;;;5.18;2.60;;;20.80;42.10;;;;;;5029661;28;20022;-73
2022/03/30 12:35:54;;;;;;;5.65;2.50;;;20.80;42.20;;;;;;5030010;28;20021;-73
2022/03/30 12:38:22;;;;;;;8.48;3.20;;;20.80;42.10;;;;;;5020433;28;20117;-74
2022/03/30 12:40:53;;;;;;;132.10;89.32;;;20.80;42.40;;;;;;5029658;28;20514;-74